sensor_id;sensor_type;location;lat;lon;timestamp;P1;durP1;ratioP1;P2;durP2;ratioP2
84937;SDS011;75210;52.210;20.902;2024-03-23T00:53:42;27.42;;;15.20;;
84937;SDS011;75210;52.210;20.902;2024-03-23T00:54:43;29.73;;;14.30;;
84937;SDS011;75210;52.210;20.902;2024-03-23T00:55:43;31.90;;;16.00;;
84937;SDS011;75210;52.210;20.902;2024-03-23T00:56:44;28.35;;;15.48;;
84937;SDS011;75210;52.210;20.902;2024-03-23T00:57:44;31.92;;;15.65;;
84937;SDS011;75210;52.210;20.902;2024-03-23T00:58:45;29.65;;;15.32;;
84937;SDS011;75210;52.210;20.902;2024-03-23T00:59:45;30.83;;;16.63;;
84937;SDS011;75210;52.210;20.902;2024-03-23T01:00:46;31.50;;;16.00;;
84937;SDS011;75210;52.210;20.902;2024-03-23T01:01:46;30.35;;;16.98;;
84937;SDS011;75210;52.210;20.902;2024-03-23T01:02:47;31.75;;;16.17;;
84937;SDS011;75210;52.210;20.902;2024-03-23T01:03:47;34.28;;;16.08;;
84937;SDS011;75210;52.210;20.902;2024-03-23T01:04:48;32.90;;;15.88;;
84937;SDS011;75210;52.210;20.902;2024-03-23T01:05:49;30.90;;;15.85;;
84937;SDS011;75210;52.210;20.902;2024-03-23T01:06:49;29.52;;;16.25;;
84937;SDS011;75210;52.210;20.902;2024-03-23T01:07:50;34.20;;;16.40;;
84937;SDS011;75210;52.210;20.902;2024-03-23T01:08:52;31.23;;;15.93;;
84937;SDS011;75210;52.210;20.902;2024-03-23T01:09:52;24.50;;;13.68;;
84937;SDS011;75210;52.210;20.902;2024-03-23T01:10:54;35.08;;;17.17;;
84937;SDS011;75210;52.210;20.902;2024-03-23T01:11:55;35.83;;;17.67;;
84937;SDS011;75210;52.210;20.902;2024-03-23T01:12:55;28.80;;;15.95;;
84937;SDS011;75210;52.210;20.902;2024-03-23T01:13:56;34.83;;;16.70;;
84937;SDS011;75210;52.210;20.902;2024-03-23T01:14:56;34.45;;;17.08;;
84937;SDS011;75210;52.210;20.902;2024-03-23T01:15:57;33.50;;;17.38;;
84937;SDS011;75210;52.210;20.902;2024-03-23T01:16:58;31.38;;;15.52;;
84937;SDS011;75210;52.210;20.902;2024-03-23T01:17:58;32.58;;;16.27;;
84937;SDS011;75210;52.210;20.902;2024-03-23T01:18:59;29.08;;;15.18;;
84937;SDS011;75210;52.210;20.902;2024-03-23T01:19:59;31.63;;;16.33;;
84937;SDS011;75210;52.210;20.902;2024-03-23T01:21:00;27.15;;;14.82;;
84937;SDS011;75210;52.210;20.902;2024-03-23T01:22:01;32.30;;;16.42;;
84937;SDS011;75210;52.210;20.902;2024-03-23T01:23:01;31.95;;;16.55;;
84937;SDS011;75210;52.210;20.902;2024-03-23T01:24:04;32.72;;;16.35;;
84937;SDS011;75210;52.210;20.902;2024-03-23T01:25:05;33.28;;;15.85;;
84937;SDS011;75210;52.210;20.902;2024-03-23T01:26:06;30.27;;;15.55;;
84937;SDS011;75210;52.210;20.902;2024-03-23T01:27:06;35.15;;;16.65;;
84937;SDS011;75210;52.210;20.902;2024-03-23T01:28:08;33.97;;;17.25;;
84937;SDS011;75210;52.210;20.902;2024-03-23T01:29:09;35.53;;;18.60;;
84937;SDS011;75210;52.210;20.902;2024-03-23T01:30:09;31.83;;;15.55;;
84937;SDS011;75210;52.210;20.902;2024-03-23T01:31:10;36.70;;;18.20;;
84937;SDS011;75210;52.210;20.902;2024-03-23T01:32:10;38.97;;;18.15;;
84937;SDS011;75210;52.210;20.902;2024-03-23T01:33:11;28.20;;;14.85;;
84937;SDS011;75210;52.210;20.902;2024-03-23T01:34:11;32.75;;;18.00;;
84937;SDS011;75210;52.210;20.902;2024-03-23T01:35:12;35.72;;;17.88;;
84937;SDS011;75210;52.210;20.902;2024-03-23T01:36:13;41.63;;;19.80;;
84937;SDS011;75210;52.210;20.902;2024-03-23T01:37:13;29.38;;;14.93;;
84937;SDS011;75210;52.210;20.902;2024-03-23T01:38:14;41.38;;;19.73;;
84937;SDS011;75210;52.210;20.902;2024-03-23T01:39:16;37.65;;;18.08;;
84937;SDS011;75210;52.210;20.902;2024-03-23T01:40:17;39.13;;;17.48;;
84937;SDS011;75210;52.210;20.902;2024-03-23T01:41:17;34.50;;;17.33;;
84937;SDS011;75210;52.210;20.902;2024-03-23T01:42:18;30.95;;;17.35;;
84937;SDS011;75210;52.210;20.902;2024-03-23T01:43:18;37.50;;;19.23;;
84937;SDS011;75210;52.210;20.902;2024-03-23T01:44:19;37.55;;;18.83;;
84937;SDS011;75210;52.210;20.902;2024-03-23T01:45:19;37.35;;;18.50;;
84937;SDS011;75210;52.210;20.902;2024-03-23T01:46:20;38.75;;;18.92;;
84937;SDS011;75210;52.210;20.902;2024-03-23T01:47:21;39.50;;;18.92;;
84937;SDS011;75210;52.210;20.902;2024-03-23T01:48:21;46.20;;;20.67;;
84937;SDS011;75210;52.210;20.902;2024-03-23T01:49:22;38.15;;;18.20;;
84937;SDS011;75210;52.210;20.902;2024-03-23T01:50:22;37.20;;;18.67;;
84937;SDS011;75210;52.210;20.902;2024-03-23T01:51:23;32.88;;;17.48;;
84937;SDS011;75210;52.210;20.902;2024-03-23T01:52:23;36.58;;;19.10;;
84937;SDS011;75210;52.210;20.902;2024-03-23T01:53:24;36.15;;;18.98;;
84937;SDS011;75210;52.210;20.902;2024-03-23T01:54:27;37.28;;;19.45;;
84937;SDS011;75210;52.210;20.902;2024-03-23T01:55:28;38.17;;;18.27;;
84937;SDS011;75210;52.210;20.902;2024-03-23T01:56:28;41.33;;;21.02;;
84937;SDS011;75210;52.210;20.902;2024-03-23T01:57:29;33.83;;;17.35;;
84937;SDS011;75210;52.210;20.902;2024-03-23T01:58:30;34.35;;;17.35;;
84937;SDS011;75210;52.210;20.902;2024-03-23T01:59:30;36.78;;;19.02;;
84937;SDS011;75210;52.210;20.902;2024-03-23T02:00:31;35.25;;;17.85;;
84937;SDS011;75210;52.210;20.902;2024-03-23T02:01:31;41.67;;;18.88;;
84937;SDS011;75210;52.210;20.902;2024-03-23T02:02:32;35.20;;;18.20;;
84937;SDS011;75210;52.210;20.902;2024-03-23T02:03:33;39.40;;;19.02;;
84937;SDS011;75210;52.210;20.902;2024-03-23T02:04:33;40.35;;;18.73;;
84937;SDS011;75210;52.210;20.902;2024-03-23T02:05:34;34.97;;;17.13;;
84937;SDS011;75210;52.210;20.902;2024-03-23T02:06:34;34.13;;;16.13;;
84937;SDS011;75210;52.210;20.902;2024-03-23T02:07:34;31.15;;;16.35;;
84937;SDS011;75210;52.210;20.902;2024-03-23T02:08:35;32.65;;;16.35;;
84937;SDS011;75210;52.210;20.902;2024-03-23T02:09:37;33.42;;;16.98;;
84937;SDS011;75210;52.210;20.902;2024-03-23T02:10:38;34.58;;;16.60;;
84937;SDS011;75210;52.210;20.902;2024-03-23T02:11:38;31.25;;;15.75;;
84937;SDS011;75210;52.210;20.902;2024-03-23T02:12:39;36.75;;;17.92;;
84937;SDS011;75210;52.210;20.902;2024-03-23T02:13:40;32.58;;;16.10;;
84937;SDS011;75210;52.210;20.902;2024-03-23T02:14:40;31.80;;;16.30;;
84937;SDS011;75210;52.210;20.902;2024-03-23T02:15:41;26.13;;;13.57;;
84937;SDS011;75210;52.210;20.902;2024-03-23T02:16:42;30.98;;;16.73;;
84937;SDS011;75210;52.210;20.902;2024-03-23T02:17:43;29.48;;;16.27;;
84937;SDS011;75210;52.210;20.902;2024-03-23T02:18:43;39.28;;;19.40;;
84937;SDS011;75210;52.210;20.902;2024-03-23T02:19:46;32.90;;;16.65;;
84937;SDS011;75210;52.210;20.902;2024-03-23T02:21:46;41.03;;;18.40;;
84937;SDS011;75210;52.210;20.902;2024-03-23T02:22:52;31.52;;;15.77;;
84937;SDS011;75210;52.210;20.902;2024-03-23T02:23:53;25.75;;;13.77;;
84937;SDS011;75210;52.210;20.902;2024-03-23T02:24:54;30.52;;;15.52;;
84937;SDS011;75210;52.210;20.902;2024-03-23T02:25:54;32.70;;;16.13;;
84937;SDS011;75210;52.210;20.902;2024-03-23T02:26:55;29.98;;;16.70;;
84937;SDS011;75210;52.210;20.902;2024-03-23T02:27:55;29.80;;;16.05;;
84937;SDS011;75210;52.210;20.902;2024-03-23T02:28:56;33.42;;;16.80;;
84937;SDS011;75210;52.210;20.902;2024-03-23T02:29:56;36.35;;;17.35;;
84937;SDS011;75210;52.210;20.902;2024-03-23T02:30:57;32.45;;;15.70;;
84937;SDS011;75210;52.210;20.902;2024-03-23T02:31:57;35.90;;;17.55;;
84937;SDS011;75210;52.210;20.902;2024-03-23T02:32:58;35.67;;;17.88;;
84937;SDS011;75210;52.210;20.902;2024-03-23T02:33:58;31.92;;;16.10;;
84937;SDS011;75210;52.210;20.902;2024-03-23T02:34:58;35.58;;;16.95;;
84937;SDS011;75210;52.210;20.902;2024-03-23T02:35:59;41.28;;;18.73;;
84937;SDS011;75210;52.210;20.902;2024-03-23T02:36:59;36.70;;;18.10;;
84937;SDS011;75210;52.210;20.902;2024-03-23T02:38:02;31.67;;;14.95;;
84937;SDS011;75210;52.210;20.902;2024-03-23T02:39:03;38.70;;;19.10;;
84937;SDS011;75210;52.210;20.902;2024-03-23T02:40:04;34.63;;;17.73;;
84937;SDS011;75210;52.210;20.902;2024-03-23T02:41:04;34.72;;;18.40;;
84937;SDS011;75210;52.210;20.902;2024-03-23T02:42:05;35.55;;;18.10;;
84937;SDS011;75210;52.210;20.902;2024-03-23T02:43:05;34.83;;;17.52;;
84937;SDS011;75210;52.210;20.902;2024-03-23T02:44:06;39.22;;;18.30;;
84937;SDS011;75210;52.210;20.902;2024-03-23T02:45:07;32.60;;;16.58;;
84937;SDS011;75210;52.210;20.902;2024-03-23T02:46:07;30.25;;;15.32;;
84937;SDS011;75210;52.210;20.902;2024-03-23T02:47:08;35.20;;;17.77;;
84937;SDS011;75210;52.210;20.902;2024-03-23T02:48:08;31.83;;;15.38;;
84937;SDS011;75210;52.210;20.902;2024-03-23T02:49:09;36.50;;;18.38;;
84937;SDS011;75210;52.210;20.902;2024-03-23T02:50:09;43.30;;;20.02;;
84937;SDS011;75210;52.210;20.902;2024-03-23T02:51:10;45.42;;;19.38;;
84937;SDS011;75210;52.210;20.902;2024-03-23T02:52:10;39.03;;;17.60;;
84937;SDS011;75210;52.210;20.902;2024-03-23T02:53:12;45.30;;;19.73;;
84937;SDS011;75210;52.210;20.902;2024-03-23T02:54:13;39.83;;;18.08;;
84937;SDS011;75210;52.210;20.902;2024-03-23T02:55:13;50.95;;;22.55;;
84937;SDS011;75210;52.210;20.902;2024-03-23T02:56:14;37.00;;;18.35;;
84937;SDS011;75210;52.210;20.902;2024-03-23T02:57:15;43.58;;;20.08;;
84937;SDS011;75210;52.210;20.902;2024-03-23T02:58:15;37.13;;;17.63;;
84937;SDS011;75210;52.210;20.902;2024-03-23T02:59:16;31.90;;;16.90;;
84937;SDS011;75210;52.210;20.902;2024-03-23T03:00:16;35.33;;;17.70;;
84937;SDS011;75210;52.210;20.902;2024-03-23T03:01:17;41.10;;;18.58;;
84937;SDS011;75210;52.210;20.902;2024-03-23T03:02:18;40.40;;;19.85;;
84937;SDS011;75210;52.210;20.902;2024-03-23T03:03:18;35.42;;;17.85;;
84937;SDS011;75210;52.210;20.902;2024-03-23T03:04:18;39.25;;;18.48;;
84937;SDS011;75210;52.210;20.902;2024-03-23T03:05:19;36.78;;;17.30;;
84937;SDS011;75210;52.210;20.902;2024-03-23T03:06:23;42.45;;;19.02;;
84937;SDS011;75210;52.210;20.902;2024-03-23T03:07:24;37.95;;;17.52;;
84937;SDS011;75210;52.210;20.902;2024-03-23T03:08:26;34.78;;;18.00;;
84937;SDS011;75210;52.210;20.902;2024-03-23T03:09:27;36.70;;;18.50;;
84937;SDS011;75210;52.210;20.902;2024-03-23T03:10:27;34.75;;;17.08;;
84937;SDS011;75210;52.210;20.902;2024-03-23T03:11:28;34.17;;;17.15;;
84937;SDS011;75210;52.210;20.902;2024-03-23T03:12:28;38.65;;;18.10;;
84937;SDS011;75210;52.210;20.902;2024-03-23T03:13:29;43.95;;;19.85;;
84937;SDS011;75210;52.210;20.902;2024-03-23T03:14:29;45.42;;;19.48;;
84937;SDS011;75210;52.210;20.902;2024-03-23T03:15:29;38.42;;;18.67;;
84937;SDS011;75210;52.210;20.902;2024-03-23T03:16:30;37.17;;;17.92;;
84937;SDS011;75210;52.210;20.902;2024-03-23T03:17:30;41.47;;;20.00;;
84937;SDS011;75210;52.210;20.902;2024-03-23T03:18:31;40.45;;;19.02;;
84937;SDS011;75210;52.210;20.902;2024-03-23T03:19:31;32.55;;;15.85;;
84937;SDS011;75210;52.210;20.902;2024-03-23T03:20:32;37.38;;;18.25;;
84937;SDS011;75210;52.210;20.902;2024-03-23T03:21:32;37.63;;;18.77;;
84937;SDS011;75210;52.210;20.902;2024-03-23T03:22:33;42.63;;;20.25;;
84937;SDS011;75210;52.210;20.902;2024-03-23T03:23:35;33.97;;;16.55;;
84937;SDS011;75210;52.210;20.902;2024-03-23T03:24:36;41.03;;;18.60;;
84937;SDS011;75210;52.210;20.902;2024-03-23T03:25:36;33.60;;;16.88;;
84937;SDS011;75210;52.210;20.902;2024-03-23T03:26:37;38.85;;;17.75;;
84937;SDS011;75210;52.210;20.902;2024-03-23T03:27:37;46.38;;;20.48;;
84937;SDS011;75210;52.210;20.902;2024-03-23T03:28:37;40.83;;;18.48;;
84937;SDS011;75210;52.210;20.902;2024-03-23T03:29:38;42.47;;;19.48;;
84937;SDS011;75210;52.210;20.902;2024-03-23T03:30:39;36.92;;;17.65;;
84937;SDS011;75210;52.210;20.902;2024-03-23T03:31:39;42.05;;;20.20;;
84937;SDS011;75210;52.210;20.902;2024-03-23T03:32:39;43.63;;;19.10;;
84937;SDS011;75210;52.210;20.902;2024-03-23T03:33:40;36.05;;;17.88;;
84937;SDS011;75210;52.210;20.902;2024-03-23T03:34:40;37.65;;;17.30;;
84937;SDS011;75210;52.210;20.902;2024-03-23T03:35:41;33.90;;;17.02;;
84937;SDS011;75210;52.210;20.902;2024-03-23T03:36:41;46.17;;;20.23;;
84937;SDS011;75210;52.210;20.902;2024-03-23T03:37:42;49.10;;;20.92;;
84937;SDS011;75210;52.210;20.902;2024-03-23T03:38:45;41.20;;;19.02;;
84937;SDS011;75210;52.210;20.902;2024-03-23T03:39:45;39.83;;;17.70;;
84937;SDS011;75210;52.210;20.902;2024-03-23T03:40:46;31.15;;;15.70;;
84937;SDS011;75210;52.210;20.902;2024-03-23T03:41:46;39.83;;;18.20;;
84937;SDS011;75210;52.210;20.902;2024-03-23T03:42:47;30.27;;;16.60;;
84937;SDS011;75210;52.210;20.902;2024-03-23T03:43:47;41.35;;;19.92;;
84937;SDS011;75210;52.210;20.902;2024-03-23T03:44:48;46.83;;;20.40;;
84937;SDS011;75210;52.210;20.902;2024-03-23T03:45:51;41.80;;;17.95;;
84937;SDS011;75210;52.210;20.902;2024-03-23T03:46:52;36.70;;;17.90;;
84937;SDS011;75210;52.210;20.902;2024-03-23T03:47:52;43.50;;;19.13;;
84937;SDS011;75210;52.210;20.902;2024-03-23T03:48:54;51.40;;;21.42;;
84937;SDS011;75210;52.210;20.902;2024-03-23T03:49:54;37.22;;;17.98;;
84937;SDS011;75210;52.210;20.902;2024-03-23T03:50:55;39.30;;;17.48;;
84937;SDS011;75210;52.210;20.902;2024-03-23T03:51:55;40.92;;;17.58;;
84937;SDS011;75210;52.210;20.902;2024-03-23T03:52:56;36.13;;;17.80;;
84937;SDS011;75210;52.210;20.902;2024-03-23T03:53:58;45.17;;;19.65;;
84937;SDS011;75210;52.210;20.902;2024-03-23T03:55:01;43.25;;;19.60;;
84937;SDS011;75210;52.210;20.902;2024-03-23T03:56:02;41.95;;;19.95;;
84937;SDS011;75210;52.210;20.902;2024-03-23T03:57:03;39.85;;;18.05;;
84937;SDS011;75210;52.210;20.902;2024-03-23T03:58:04;40.72;;;19.05;;
84937;SDS011;75210;52.210;20.902;2024-03-23T03:59:04;27.88;;;15.40;;
84937;SDS011;75210;52.210;20.902;2024-03-23T04:00:05;27.25;;;15.88;;
84937;SDS011;75210;52.210;20.902;2024-03-23T04:01:07;32.28;;;15.95;;
84937;SDS011;75210;52.210;20.902;2024-03-23T04:02:07;40.17;;;19.27;;
84937;SDS011;75210;52.210;20.902;2024-03-23T04:03:08;29.55;;;16.50;;
84937;SDS011;75210;52.210;20.902;2024-03-23T04:04:08;37.45;;;18.75;;
84937;SDS011;75210;52.210;20.902;2024-03-23T04:05:09;36.42;;;18.05;;
84937;SDS011;75210;52.210;20.902;2024-03-23T04:06:09;45.47;;;19.52;;
84937;SDS011;75210;52.210;20.902;2024-03-23T04:07:10;38.08;;;18.08;;
84937;SDS011;75210;52.210;20.902;2024-03-23T04:08:10;36.72;;;18.02;;
84937;SDS011;75210;52.210;20.902;2024-03-23T04:09:12;30.70;;;16.83;;
84937;SDS011;75210;52.210;20.902;2024-03-23T04:10:13;37.92;;;17.55;;
84937;SDS011;75210;52.210;20.902;2024-03-23T04:11:14;36.60;;;18.20;;
84937;SDS011;75210;52.210;20.902;2024-03-23T04:12:14;28.13;;;15.70;;
84937;SDS011;75210;52.210;20.902;2024-03-23T04:13:15;33.13;;;17.15;;
84937;SDS011;75210;52.210;20.902;2024-03-23T04:14:15;34.70;;;17.85;;
84937;SDS011;75210;52.210;20.902;2024-03-23T04:15:16;24.88;;;14.68;;
84937;SDS011;75210;52.210;20.902;2024-03-23T04:16:24;35.95;;;16.85;;
84937;SDS011;75210;52.210;20.902;2024-03-23T04:17:26;37.58;;;19.13;;
84937;SDS011;75210;52.210;20.902;2024-03-23T04:18:27;31.45;;;16.13;;
84937;SDS011;75210;52.210;20.902;2024-03-23T04:19:27;32.58;;;17.67;;
84937;SDS011;75210;52.210;20.902;2024-03-23T04:20:28;33.63;;;17.67;;
84937;SDS011;75210;52.210;20.902;2024-03-23T04:21:28;34.92;;;17.48;;
84937;SDS011;75210;52.210;20.902;2024-03-23T04:22:29;23.23;;;13.85;;
84937;SDS011;75210;52.210;20.902;2024-03-23T04:23:29;41.35;;;18.77;;
84937;SDS011;75210;52.210;20.902;2024-03-23T04:24:32;39.03;;;19.45;;
84937;SDS011;75210;52.210;20.902;2024-03-23T04:25:33;36.80;;;18.15;;
84937;SDS011;75210;52.210;20.902;2024-03-23T04:26:40;32.03;;;16.65;;
84937;SDS011;75210;52.210;20.902;2024-03-23T04:27:41;47.47;;;20.35;;
84937;SDS011;75210;52.210;20.902;2024-03-23T04:28:41;43.53;;;21.02;;
84937;SDS011;75210;52.210;20.902;2024-03-23T04:29:42;33.78;;;18.02;;
84937;SDS011;75210;52.210;20.902;2024-03-23T04:30:42;46.58;;;21.83;;
84937;SDS011;75210;52.210;20.902;2024-03-23T04:31:43;38.80;;;19.52;;
84937;SDS011;75210;52.210;20.902;2024-03-23T04:32:43;54.78;;;23.67;;
84937;SDS011;75210;52.210;20.902;2024-03-23T04:33:44;59.42;;;25.75;;
84937;SDS011;75210;52.210;20.902;2024-03-23T04:34:44;55.28;;;24.65;;
84937;SDS011;75210;52.210;20.902;2024-03-23T04:35:47;49.15;;;23.63;;
84937;SDS011;75210;52.210;20.902;2024-03-23T04:36:49;50.70;;;23.08;;
84937;SDS011;75210;52.210;20.902;2024-03-23T04:37:49;49.30;;;23.95;;
84937;SDS011;75210;52.210;20.902;2024-03-23T04:38:50;64.32;;;27.00;;
84937;SDS011;75210;52.210;20.902;2024-03-23T04:39:52;41.95;;;21.58;;
84937;SDS011;75210;52.210;20.902;2024-03-23T04:40:56;39.38;;;21.23;;
84937;SDS011;75210;52.210;20.902;2024-03-23T04:41:57;50.38;;;23.63;;
84937;SDS011;75210;52.210;20.902;2024-03-23T04:42:57;55.08;;;23.75;;
84937;SDS011;75210;52.210;20.902;2024-03-23T04:43:58;52.80;;;22.35;;
84937;SDS011;75210;52.210;20.902;2024-03-23T04:44:58;47.72;;;22.27;;
84937;SDS011;75210;52.210;20.902;2024-03-23T04:45:59;49.70;;;21.60;;
84937;SDS011;75210;52.210;20.902;2024-03-23T04:47:00;52.05;;;23.05;;
84937;SDS011;75210;52.210;20.902;2024-03-23T04:48:01;58.20;;;23.27;;
84937;SDS011;75210;52.210;20.902;2024-03-23T04:49:01;47.50;;;21.90;;
84937;SDS011;75210;52.210;20.902;2024-03-23T04:50:02;34.42;;;19.05;;
84937;SDS011;75210;52.210;20.902;2024-03-23T04:51:02;47.47;;;21.80;;
84937;SDS011;75210;52.210;20.902;2024-03-23T04:52:04;47.95;;;23.63;;
84937;SDS011;75210;52.210;20.902;2024-03-23T04:53:05;42.78;;;21.63;;
84937;SDS011;75210;52.210;20.902;2024-03-23T04:54:05;47.95;;;22.23;;
84937;SDS011;75210;52.210;20.902;2024-03-23T04:55:08;45.35;;;20.90;;
84937;SDS011;75210;52.210;20.902;2024-03-23T04:56:08;45.80;;;20.70;;
84937;SDS011;75210;52.210;20.902;2024-03-23T04:57:09;46.83;;;21.77;;
84937;SDS011;75210;52.210;20.902;2024-03-23T04:58:09;46.70;;;22.92;;
84937;SDS011;75210;52.210;20.902;2024-03-23T04:59:10;38.72;;;19.73;;
84937;SDS011;75210;52.210;20.902;2024-03-23T05:00:11;37.38;;;18.33;;
84937;SDS011;75210;52.210;20.902;2024-03-23T05:02:13;42.75;;;19.90;;
84937;SDS011;75210;52.210;20.902;2024-03-23T05:03:14;38.55;;;19.77;;
84937;SDS011;75210;52.210;20.902;2024-03-23T05:04:15;48.05;;;21.52;;
84937;SDS011;75210;52.210;20.902;2024-03-23T05:05:15;50.58;;;22.00;;
84937;SDS011;75210;52.210;20.902;2024-03-23T05:06:16;37.08;;;18.15;;
84937;SDS011;75210;52.210;20.902;2024-03-23T05:07:16;40.45;;;20.63;;
84937;SDS011;75210;52.210;20.902;2024-03-23T05:08:17;44.75;;;21.63;;
84937;SDS011;75210;52.210;20.902;2024-03-23T05:09:17;40.25;;;20.08;;
84937;SDS011;75210;52.210;20.902;2024-03-23T05:10:20;36.22;;;19.13;;
84937;SDS011;75210;52.210;20.902;2024-03-23T05:11:20;40.85;;;19.63;;
84937;SDS011;75210;52.210;20.902;2024-03-23T05:12:21;41.28;;;19.90;;
84937;SDS011;75210;52.210;20.902;2024-03-23T05:13:21;38.03;;;17.90;;
84937;SDS011;75210;52.210;20.902;2024-03-23T05:14:22;37.88;;;19.67;;
84937;SDS011;75210;52.210;20.902;2024-03-23T05:15:22;34.30;;;17.67;;
84937;SDS011;75210;52.210;20.902;2024-03-23T05:16:23;39.03;;;19.17;;
84937;SDS011;75210;52.210;20.902;2024-03-23T05:17:23;40.45;;;19.10;;
84937;SDS011;75210;52.210;20.902;2024-03-23T05:18:24;40.88;;;19.50;;
84937;SDS011;75210;52.210;20.902;2024-03-23T05:19:24;43.58;;;19.90;;
84937;SDS011;75210;52.210;20.902;2024-03-23T05:20:24;47.08;;;20.85;;
84937;SDS011;75210;52.210;20.902;2024-03-23T05:21:25;40.95;;;19.60;;
84937;SDS011;75210;52.210;20.902;2024-03-23T05:22:26;44.22;;;20.55;;
84937;SDS011;75210;52.210;20.902;2024-03-23T05:23:27;33.75;;;18.17;;
84937;SDS011;75210;52.210;20.902;2024-03-23T05:25:30;38.13;;;18.95;;
84937;SDS011;75210;52.210;20.902;2024-03-23T05:26:30;33.50;;;17.52;;
84937;SDS011;75210;52.210;20.902;2024-03-23T05:27:31;43.17;;;20.48;;
84937;SDS011;75210;52.210;20.902;2024-03-23T05:28:32;39.70;;;20.33;;
84937;SDS011;75210;52.210;20.902;2024-03-23T05:29:33;36.28;;;18.88;;
84937;SDS011;75210;52.210;20.902;2024-03-23T05:30:33;37.55;;;19.13;;
84937;SDS011;75210;52.210;20.902;2024-03-23T05:31:34;41.35;;;19.42;;
84937;SDS011;75210;52.210;20.902;2024-03-23T05:32:34;39.33;;;20.27;;
84937;SDS011;75210;52.210;20.902;2024-03-23T05:33:35;41.00;;;20.63;;
84937;SDS011;75210;52.210;20.902;2024-03-23T05:34:35;40.88;;;20.50;;
84937;SDS011;75210;52.210;20.902;2024-03-23T05:35:36;44.83;;;21.38;;
84937;SDS011;75210;52.210;20.902;2024-03-23T05:36:36;41.75;;;20.95;;
84937;SDS011;75210;52.210;20.902;2024-03-23T05:37:37;41.30;;;19.65;;
84937;SDS011;75210;52.210;20.902;2024-03-23T05:38:37;39.05;;;20.02;;
84937;SDS011;75210;52.210;20.902;2024-03-23T05:39:38;38.78;;;19.70;;
84937;SDS011;75210;52.210;20.902;2024-03-23T05:40:40;40.55;;;20.58;;
84937;SDS011;75210;52.210;20.902;2024-03-23T05:41:41;46.38;;;20.50;;
84937;SDS011;75210;52.210;20.902;2024-03-23T05:42:41;42.83;;;22.10;;
84937;SDS011;75210;52.210;20.902;2024-03-23T05:43:42;48.15;;;22.65;;
84937;SDS011;75210;52.210;20.902;2024-03-23T05:44:43;35.85;;;19.52;;
84937;SDS011;75210;52.210;20.902;2024-03-23T05:45:44;39.80;;;19.75;;
84937;SDS011;75210;52.210;20.902;2024-03-23T05:46:44;44.33;;;22.20;;
84937;SDS011;75210;52.210;20.902;2024-03-23T05:47:45;50.53;;;22.05;;
84937;SDS011;75210;52.210;20.902;2024-03-23T05:48:46;47.05;;;21.55;;
84937;SDS011;75210;52.210;20.902;2024-03-23T05:49:47;43.28;;;21.60;;
84937;SDS011;75210;52.210;20.902;2024-03-23T05:50:47;39.75;;;19.77;;
84937;SDS011;75210;52.210;20.902;2024-03-23T05:51:48;46.60;;;21.58;;
84937;SDS011;75210;52.210;20.902;2024-03-23T05:52:49;44.35;;;20.95;;
84937;SDS011;75210;52.210;20.902;2024-03-23T05:53:49;42.13;;;20.33;;
84937;SDS011;75210;52.210;20.902;2024-03-23T05:54:50;40.58;;;19.58;;
84937;SDS011;75210;52.210;20.902;2024-03-23T05:55:59;42.38;;;20.65;;
84937;SDS011;75210;52.210;20.902;2024-03-23T05:57:01;38.67;;;19.25;;
84937;SDS011;75210;52.210;20.902;2024-03-23T05:58:01;44.05;;;19.42;;
84937;SDS011;75210;52.210;20.902;2024-03-23T05:59:02;41.75;;;20.90;;
84937;SDS011;75210;52.210;20.902;2024-03-23T06:00:03;41.40;;;20.73;;
84937;SDS011;75210;52.210;20.902;2024-03-23T06:01:04;43.10;;;21.08;;
84937;SDS011;75210;52.210;20.902;2024-03-23T06:02:04;38.33;;;20.58;;
84937;SDS011;75210;52.210;20.902;2024-03-23T06:03:05;42.78;;;20.17;;
84937;SDS011;75210;52.210;20.902;2024-03-23T06:04:06;38.38;;;19.67;;
84937;SDS011;75210;52.210;20.902;2024-03-23T06:05:07;40.58;;;20.20;;
84937;SDS011;75210;52.210;20.902;2024-03-23T06:06:07;38.38;;;20.13;;
84937;SDS011;75210;52.210;20.902;2024-03-23T06:07:08;44.42;;;20.80;;
84937;SDS011;75210;52.210;20.902;2024-03-23T06:08:08;38.90;;;18.70;;
84937;SDS011;75210;52.210;20.902;2024-03-23T06:09:09;38.88;;;19.73;;
84937;SDS011;75210;52.210;20.902;2024-03-23T06:10:09;35.30;;;18.55;;
84937;SDS011;75210;52.210;20.902;2024-03-23T06:11:12;38.55;;;19.70;;
84937;SDS011;75210;52.210;20.902;2024-03-23T06:12:12;39.47;;;20.33;;
84937;SDS011;75210;52.210;20.902;2024-03-23T06:13:13;41.10;;;21.13;;
84937;SDS011;75210;52.210;20.902;2024-03-23T06:14:13;46.80;;;21.42;;
84937;SDS011;75210;52.210;20.902;2024-03-23T06:15:14;40.42;;;20.52;;
84937;SDS011;75210;52.210;20.902;2024-03-23T06:16:14;48.60;;;22.02;;
84937;SDS011;75210;52.210;20.902;2024-03-23T06:17:15;41.05;;;20.45;;
84937;SDS011;75210;52.210;20.902;2024-03-23T06:18:15;37.22;;;19.20;;
84937;SDS011;75210;52.210;20.902;2024-03-23T06:19:16;38.75;;;19.48;;
84937;SDS011;75210;52.210;20.902;2024-03-23T06:20:16;47.47;;;20.30;;
84937;SDS011;75210;52.210;20.902;2024-03-23T06:21:17;41.63;;;21.00;;
84937;SDS011;75210;52.210;20.902;2024-03-23T06:22:20;43.47;;;20.60;;
84937;SDS011;75210;52.210;20.902;2024-03-23T06:23:21;36.95;;;18.88;;
84937;SDS011;75210;52.210;20.902;2024-03-23T06:24:21;33.63;;;18.38;;
84937;SDS011;75210;52.210;20.902;2024-03-23T06:25:22;38.22;;;20.35;;
84937;SDS011;75210;52.210;20.902;2024-03-23T06:26:24;40.78;;;19.73;;
84937;SDS011;75210;52.210;20.902;2024-03-23T06:27:25;40.13;;;20.02;;
84937;SDS011;75210;52.210;20.902;2024-03-23T06:28:25;37.63;;;19.13;;
84937;SDS011;75210;52.210;20.902;2024-03-23T06:29:26;38.45;;;19.27;;
84937;SDS011;75210;52.210;20.902;2024-03-23T06:30:26;34.10;;;18.33;;
84937;SDS011;75210;52.210;20.902;2024-03-23T06:31:27;39.30;;;19.52;;
84937;SDS011;75210;52.210;20.902;2024-03-23T06:32:28;40.05;;;19.30;;
84937;SDS011;75210;52.210;20.902;2024-03-23T06:33:28;34.92;;;18.63;;
84937;SDS011;75210;52.210;20.902;2024-03-23T06:34:29;36.35;;;17.95;;
84937;SDS011;75210;52.210;20.902;2024-03-23T06:35:29;38.00;;;18.13;;
84937;SDS011;75210;52.210;20.902;2024-03-23T06:36:30;41.90;;;19.73;;
84937;SDS011;75210;52.210;20.902;2024-03-23T06:37:30;36.63;;;18.55;;
84937;SDS011;75210;52.210;20.902;2024-03-23T06:38:31;38.92;;;19.63;;
84937;SDS011;75210;52.210;20.902;2024-03-23T06:39:31;40.65;;;19.83;;
84937;SDS011;75210;52.210;20.902;2024-03-23T06:40:32;36.75;;;19.45;;
84937;SDS011;75210;52.210;20.902;2024-03-23T06:41:34;36.88;;;19.77;;
84937;SDS011;75210;52.210;20.902;2024-03-23T06:42:34;35.90;;;19.02;;
84937;SDS011;75210;52.210;20.902;2024-03-23T06:43:35;42.35;;;19.60;;
84937;SDS011;75210;52.210;20.902;2024-03-23T06:44:35;42.20;;;20.58;;
84937;SDS011;75210;52.210;20.902;2024-03-23T06:45:36;41.42;;;20.48;;
84937;SDS011;75210;52.210;20.902;2024-03-23T06:46:36;39.55;;;19.85;;